sensor_id;sensor_type;location;lat;lon;timestamp;P1;durP1;ratioP1;P2;durP2;ratioP2
65033;SDS011;51601;51.356;12.458;2024-02-26T00:02:07;18.40;;;8.82;;
65033;SDS011;51601;51.356;12.458;2024-02-26T00:06:24;20.63;;;8.25;;
65033;SDS011;51601;51.356;12.458;2024-02-26T00:10:42;20.87;;;8.77;;
65033;SDS011;51601;51.356;12.458;2024-02-26T00:15:05;19.52;;;8.88;;
65033;SDS011;51601;51.356;12.458;2024-02-26T00:19:25;20.20;;;8.48;;
65033;SDS011;51601;51.356;12.458;2024-02-26T00:23:45;25.27;;;10.73;;
65033;SDS011;51601;51.356;12.458;2024-02-26T00:28:04;23.90;;;10.32;;
65033;SDS011;51601;51.356;12.458;2024-02-26T00:32:24;23.65;;;10.32;;
65033;SDS011;51601;51.356;12.458;2024-02-26T00:36:47;21.93;;;9.73;;
65033;SDS011;51601;51.356;12.458;2024-02-26T00:41:07;18.65;;;9.52;;
65033;SDS011;51601;51.356;12.458;2024-02-26T00:45:25;20.42;;;8.98;;
65033;SDS011;51601;51.356;12.458;2024-02-26T00:49:43;21.60;;;10.30;;
65033;SDS011;51601;51.356;12.458;2024-02-26T00:54:03;19.87;;;8.87;;
65033;SDS011;51601;51.356;12.458;2024-02-26T00:58:22;23.45;;;9.25;;
65033;SDS011;51601;51.356;12.458;2024-02-26T01:02:40;21.17;;;9.52;;
65033;SDS011;51601;51.356;12.458;2024-02-26T01:06:58;21.43;;;9.90;;
65033;SDS011;51601;51.356;12.458;2024-02-26T01:11:18;18.90;;;7.40;;
65033;SDS011;51601;51.356;12.458;2024-02-26T01:15:34;16.98;;;8.68;;
65033;SDS011;51601;51.356;12.458;2024-02-26T01:19:53;21.57;;;9.27;;
65033;SDS011;51601;51.356;12.458;2024-02-26T01:24:10;13.27;;;6.03;;
65033;SDS011;51601;51.356;12.458;2024-02-26T01:28:30;15.20;;;6.82;;
65033;SDS011;51601;51.356;12.458;2024-02-26T01:32:46;22.27;;;9.95;;
65033;SDS011;51601;51.356;12.458;2024-02-26T01:37:04;20.47;;;9.93;;
65033;SDS011;51601;51.356;12.458;2024-02-26T01:41:23;20.02;;;8.90;;
65033;SDS011;51601;51.356;12.458;2024-02-26T01:45:42;21.27;;;9.57;;
65033;SDS011;51601;51.356;12.458;2024-02-26T01:49:59;23.47;;;9.70;;
65033;SDS011;51601;51.356;12.458;2024-02-26T01:54:17;19.65;;;8.82;;
65033;SDS011;51601;51.356;12.458;2024-02-26T01:58:35;18.33;;;9.18;;
65033;SDS011;51601;51.356;12.458;2024-02-26T02:02:54;19.10;;;8.03;;
65033;SDS011;51601;51.356;12.458;2024-02-26T02:07:14;17.20;;;7.47;;
65033;SDS011;51601;51.356;12.458;2024-02-26T02:11:32;15.85;;;7.50;;
65033;SDS011;51601;51.356;12.458;2024-02-26T02:15:50;15.30;;;7.28;;
65033;SDS011;51601;51.356;12.458;2024-02-26T02:20:14;15.97;;;6.83;;
65033;SDS011;51601;51.356;12.458;2024-02-26T02:24:34;15.90;;;7.38;;
65033;SDS011;51601;51.356;12.458;2024-02-26T02:28:50;18.05;;;8.30;;
65033;SDS011;51601;51.356;12.458;2024-02-26T02:33:08;16.20;;;6.93;;
65033;SDS011;51601;51.356;12.458;2024-02-26T02:37:29;17.60;;;8.00;;
65033;SDS011;51601;51.356;12.458;2024-02-26T02:41:49;16.10;;;7.63;;
65033;SDS011;51601;51.356;12.458;2024-02-26T02:46:09;19.00;;;9.40;;
65033;SDS011;51601;51.356;12.458;2024-02-26T02:50:27;14.73;;;6.78;;
65033;SDS011;51601;51.356;12.458;2024-02-26T02:54:45;23.90;;;9.68;;
65033;SDS011;51601;51.356;12.458;2024-02-26T02:59:04;22.02;;;10.45;;
65033;SDS011;51601;51.356;12.458;2024-02-26T03:03:24;21.57;;;10.33;;
65033;SDS011;51601;51.356;12.458;2024-02-26T03:07:45;19.92;;;10.25;;
65033;SDS011;51601;51.356;12.458;2024-02-26T03:12:04;26.35;;;12.38;;
65033;SDS011;51601;51.356;12.458;2024-02-26T03:16:24;24.33;;;11.27;;
65033;SDS011;51601;51.356;12.458;2024-02-26T03:20:42;31.27;;;13.23;;
65033;SDS011;51601;51.356;12.458;2024-02-26T03:25:01;30.67;;;14.50;;
65033;SDS011;51601;51.356;12.458;2024-02-26T03:29:19;25.57;;;11.87;;
65033;SDS011;51601;51.356;12.458;2024-02-26T03:33:38;28.15;;;13.00;;
65033;SDS011;51601;51.356;12.458;2024-02-26T03:37:58;33.15;;;16.05;;
65033;SDS011;51601;51.356;12.458;2024-02-26T03:42:16;30.08;;;14.30;;
65033;SDS011;51601;51.356;12.458;2024-02-26T03:46:34;24.50;;;11.70;;
65033;SDS011;51601;51.356;12.458;2024-02-26T03:50:53;33.45;;;16.10;;
65033;SDS011;51601;51.356;12.458;2024-02-26T03:55:13;32.10;;;15.32;;
65033;SDS011;51601;51.356;12.458;2024-02-26T03:59:31;27.00;;;11.63;;
65033;SDS011;51601;51.356;12.458;2024-02-26T04:03:49;33.85;;;15.52;;
65033;SDS011;51601;51.356;12.458;2024-02-26T04:08:08;32.40;;;15.38;;
65033;SDS011;51601;51.356;12.458;2024-02-26T04:12:25;37.87;;;16.93;;
65033;SDS011;51601;51.356;12.458;2024-02-26T04:16:43;24.95;;;12.70;;
65033;SDS011;51601;51.356;12.458;2024-02-26T04:21:01;38.35;;;16.02;;
65033;SDS011;51601;51.356;12.458;2024-02-26T04:25:24;36.22;;;14.10;;
65033;SDS011;51601;51.356;12.458;2024-02-26T04:29:44;38.90;;;16.67;;
65033;SDS011;51601;51.356;12.458;2024-02-26T04:34:02;38.78;;;17.70;;
65033;SDS011;51601;51.356;12.458;2024-02-26T04:38:20;37.80;;;16.73;;
65033;SDS011;51601;51.356;12.458;2024-02-26T04:42:39;37.37;;;16.07;;
65033;SDS011;51601;51.356;12.458;2024-02-26T04:46:56;41.85;;;17.42;;
65033;SDS011;51601;51.356;12.458;2024-02-26T04:51:14;33.50;;;15.20;;
65033;SDS011;51601;51.356;12.458;2024-02-26T04:55:32;41.93;;;16.57;;
65033;SDS011;51601;51.356;12.458;2024-02-26T04:59:51;23.65;;;11.70;;
65033;SDS011;51601;51.356;12.458;2024-02-26T05:04:13;35.70;;;15.48;;
65033;SDS011;51601;51.356;12.458;2024-02-26T05:08:32;35.30;;;15.30;;
65033;SDS011;51601;51.356;12.458;2024-02-26T05:12:53;25.87;;;11.23;;
65033;SDS011;51601;51.356;12.458;2024-02-26T05:17:13;34.10;;;16.05;;
65033;SDS011;51601;51.356;12.458;2024-02-26T05:21:32;38.83;;;16.40;;
65033;SDS011;51601;51.356;12.458;2024-02-26T05:25:51;37.80;;;17.00;;
65033;SDS011;51601;51.356;12.458;2024-02-26T05:30:09;40.90;;;17.13;;
65033;SDS011;51601;51.356;12.458;2024-02-26T05:34:28;38.50;;;17.33;;
65033;SDS011;51601;51.356;12.458;2024-02-26T05:38:48;36.73;;;17.17;;
65033;SDS011;51601;51.356;12.458;2024-02-26T05:43:06;36.88;;;16.33;;
65033;SDS011;51601;51.356;12.458;2024-02-26T05:47:24;39.70;;;16.95;;
65033;SDS011;51601;51.356;12.458;2024-02-26T05:51:49;39.35;;;16.80;;
65033;SDS011;51601;51.356;12.458;2024-02-26T05:56:06;38.40;;;16.07;;
65033;SDS011;51601;51.356;12.458;2024-02-26T06:00:24;37.08;;;16.08;;
65033;SDS011;51601;51.356;12.458;2024-02-26T06:04:42;29.27;;;13.88;;
65033;SDS011;51601;51.356;12.458;2024-02-26T06:09:05;34.00;;;15.70;;
65033;SDS011;51601;51.356;12.458;2024-02-26T06:13:22;36.47;;;16.63;;
65033;SDS011;51601;51.356;12.458;2024-02-26T06:17:40;39.50;;;17.70;;
65033;SDS011;51601;51.356;12.458;2024-02-26T06:21:58;36.73;;;15.73;;
65033;SDS011;51601;51.356;12.458;2024-02-26T06:26:17;35.33;;;15.05;;
65033;SDS011;51601;51.356;12.458;2024-02-26T06:30:37;34.05;;;14.88;;
65033;SDS011;51601;51.356;12.458;2024-02-26T06:34:55;31.08;;;14.55;;
65033;SDS011;51601;51.356;12.458;2024-02-26T06:39:13;33.10;;;14.63;;
65033;SDS011;51601;51.356;12.458;2024-02-26T06:43:32;32.72;;;14.27;;
65033;SDS011;51601;51.356;12.458;2024-02-26T06:47:49;33.22;;;15.07;;
65033;SDS011;51601;51.356;12.458;2024-02-26T06:52:07;30.93;;;13.80;;
65033;SDS011;51601;51.356;12.458;2024-02-26T06:56:25;30.00;;;14.02;;
65033;SDS011;51601;51.356;12.458;2024-02-26T07:00:48;29.65;;;13.82;;
65033;SDS011;51601;51.356;12.458;2024-02-26T07:05:08;26.73;;;13.20;;
65033;SDS011;51601;51.356;12.458;2024-02-26T07:09:25;23.90;;;11.55;;
65033;SDS011;51601;51.356;12.458;2024-02-26T07:13:43;27.00;;;13.77;;
65033;SDS011;51601;51.356;12.458;2024-02-26T07:18:03;29.20;;;13.13;;
65033;SDS011;51601;51.356;12.458;2024-02-26T07:22:23;24.93;;;12.03;;
65033;SDS011;51601;51.356;12.458;2024-02-26T07:26:44;23.25;;;11.48;;
65033;SDS011;51601;51.356;12.458;2024-02-26T07:31:02;21.40;;;10.82;;
65033;SDS011;51601;51.356;12.458;2024-02-26T07:35:22;22.27;;;11.17;;
65033;SDS011;51601;51.356;12.458;2024-02-26T07:39:41;21.30;;;9.95;;
65033;SDS011;51601;51.356;12.458;2024-02-26T07:43:59;18.73;;;9.90;;
65033;SDS011;51601;51.356;12.458;2024-02-26T07:48:17;16.07;;;8.17;;
65033;SDS011;51601;51.356;12.458;2024-02-26T07:52:40;18.17;;;9.95;;
65033;SDS011;51601;51.356;12.458;2024-02-26T07:56:57;15.52;;;8.40;;
65033;SDS011;51601;51.356;12.458;2024-02-26T08:01:14;17.85;;;9.30;;
65033;SDS011;51601;51.356;12.458;2024-02-26T08:05:32;14.37;;;8.37;;
65033;SDS011;51601;51.356;12.458;2024-02-26T08:09:52;17.38;;;8.55;;
65033;SDS011;51601;51.356;12.458;2024-02-26T08:14:09;12.10;;;6.93;;
65033;SDS011;51601;51.356;12.458;2024-02-26T08:18:27;15.37;;;9.27;;
65033;SDS011;51601;51.356;12.458;2024-02-26T08:22:45;16.48;;;8.52;;
65033;SDS011;51601;51.356;12.458;2024-02-26T08:27:04;16.17;;;8.38;;
65033;SDS011;51601;51.356;12.458;2024-02-26T08:31:24;15.30;;;8.80;;
65033;SDS011;51601;51.356;12.458;2024-02-26T08:35:42;17.00;;;8.60;;
65033;SDS011;51601;51.356;12.458;2024-02-26T08:40:00;14.95;;;8.90;;
65033;SDS011;51601;51.356;12.458;2024-02-26T08:44:22;14.38;;;8.23;;
65033;SDS011;51601;51.356;12.458;2024-02-26T08:48:42;13.13;;;7.87;;
65033;SDS011;51601;51.356;12.458;2024-02-26T08:53:00;14.05;;;7.68;;
65033;SDS011;51601;51.356;12.458;2024-02-26T08:57:21;14.57;;;7.63;;
65033;SDS011;51601;51.356;12.458;2024-02-26T09:01:41;12.03;;;7.60;;
65033;SDS011;51601;51.356;12.458;2024-02-26T09:05:57;12.35;;;6.65;;
65033;SDS011;51601;51.356;12.458;2024-02-26T09:10:16;13.30;;;7.00;;
65033;SDS011;51601;51.356;12.458;2024-02-26T09:14:34;11.13;;;6.93;;
65033;SDS011;51601;51.356;12.458;2024-02-26T09:18:56;12.95;;;7.15;;
65033;SDS011;51601;51.356;12.458;2024-02-26T09:23:16;12.75;;;7.13;;
65033;SDS011;51601;51.356;12.458;2024-02-26T09:27:34;11.13;;;6.43;;
65033;SDS011;51601;51.356;12.458;2024-02-26T09:31:58;12.67;;;6.33;;
65033;SDS011;51601;51.356;12.458;2024-02-26T09:36:18;12.07;;;6.88;;
65033;SDS011;51601;51.356;12.458;2024-02-26T09:40:39;12.88;;;6.40;;
65033;SDS011;51601;51.356;12.458;2024-02-26T09:44:59;9.63;;;6.10;;
65033;SDS011;51601;51.356;12.458;2024-02-26T09:49:20;11.48;;;5.90;;
65033;SDS011;51601;51.356;12.458;2024-02-26T09:53:43;11.10;;;5.80;;
65033;SDS011;51601;51.356;12.458;2024-02-26T09:58:02;12.13;;;5.57;;
65033;SDS011;51601;51.356;12.458;2024-02-26T10:02:23;9.27;;;5.10;;
65033;SDS011;51601;51.356;12.458;2024-02-26T10:06:41;11.98;;;6.35;;
65033;SDS011;51601;51.356;12.458;2024-02-26T10:11:04;10.13;;;5.35;;
65033;SDS011;51601;51.356;12.458;2024-02-26T10:15:23;11.80;;;5.90;;
65033;SDS011;51601;51.356;12.458;2024-02-26T10:19:41;10.23;;;5.28;;
65033;SDS011;51601;51.356;12.458;2024-02-26T10:23:59;10.77;;;5.25;;
65033;SDS011;51601;51.356;12.458;2024-02-26T10:28:19;11.20;;;5.47;;
65033;SDS011;51601;51.356;12.458;2024-02-26T10:32:35;11.63;;;5.20;;
65033;SDS011;51601;51.356;12.458;2024-02-26T10:36:57;10.73;;;5.00;;
65033;SDS011;51601;51.356;12.458;2024-02-26T10:41:15;13.30;;;5.00;;
65033;SDS011;51601;51.356;12.458;2024-02-26T10:45:34;9.25;;;4.75;;
65033;SDS011;51601;51.356;12.458;2024-02-26T10:49:54;9.82;;;5.07;;
65033;SDS011;51601;51.356;12.458;2024-02-26T10:54:12;10.40;;;5.10;;
65033;SDS011;51601;51.356;12.458;2024-02-26T10:58:33;11.43;;;5.40;;
65033;SDS011;51601;51.356;12.458;2024-02-26T11:02:52;11.45;;;5.55;;
65033;SDS011;51601;51.356;12.458;2024-02-26T11:07:12;11.30;;;5.60;;
65033;SDS011;51601;51.356;12.458;2024-02-26T11:11:31;12.43;;;5.80;;
65033;SDS011;51601;51.356;12.458;2024-02-26T11:15:51;10.77;;;5.53;;
65033;SDS011;51601;51.356;12.458;2024-02-26T11:20:14;11.27;;;5.32;;
65033;SDS011;51601;51.356;12.458;2024-02-26T11:24:34;11.70;;;5.77;;
65033;SDS011;51601;51.356;12.458;2024-02-26T11:28:55;10.82;;;5.13;;
65033;SDS011;51601;51.356;12.458;2024-02-26T11:33:13;11.43;;;5.55;;
65033;SDS011;51601;51.356;12.458;2024-02-26T11:37:35;10.85;;;4.82;;
65033;SDS011;51601;51.356;12.458;2024-02-26T11:42:04;11.27;;;5.17;;
65033;SDS011;51601;51.356;12.458;2024-02-26T11:46:26;10.63;;;4.88;;
65033;SDS011;51601;51.356;12.458;2024-02-26T11:50:47;10.90;;;5.60;;
65033;SDS011;51601;51.356;12.458;2024-02-26T11:55:09;11.30;;;6.10;;
65033;SDS011;51601;51.356;12.458;2024-02-26T11:59:37;12.63;;;6.60;;
65033;SDS011;51601;51.356;12.458;2024-02-26T12:03:56;12.93;;;7.05;;
65033;SDS011;51601;51.356;12.458;2024-02-26T12:08:14;13.20;;;7.23;;
65033;SDS011;51601;51.356;12.458;2024-02-26T12:12:37;12.65;;;6.78;;
65033;SDS011;51601;51.356;12.458;2024-02-26T12:16:56;12.80;;;7.20;;
65033;SDS011;51601;51.356;12.458;2024-02-26T12:21:14;15.88;;;7.10;;
65033;SDS011;51601;51.356;12.458;2024-02-26T12:25:32;14.00;;;7.13;;
65033;SDS011;51601;51.356;12.458;2024-02-26T12:29:52;15.32;;;7.72;;
65033;SDS011;51601;51.356;12.458;2024-02-26T12:34:12;12.30;;;6.30;;
65033;SDS011;51601;51.356;12.458;2024-02-26T12:38:31;14.17;;;7.53;;
65033;SDS011;51601;51.356;12.458;2024-02-26T12:42:51;13.13;;;7.18;;
65033;SDS011;51601;51.356;12.458;2024-02-26T12:47:13;13.48;;;7.03;;
65033;SDS011;51601;51.356;12.458;2024-02-26T12:51:34;13.33;;;6.93;;
65033;SDS011;51601;51.356;12.458;2024-02-26T12:55:51;15.68;;;6.82;;
65033;SDS011;51601;51.356;12.458;2024-02-26T13:00:11;11.52;;;5.80;;
65033;SDS011;51601;51.356;12.458;2024-02-26T13:04:35;16.63;;;6.88;;
65033;SDS011;51601;51.356;12.458;2024-02-26T13:08:56;12.50;;;6.20;;
65033;SDS011;51601;51.356;12.458;2024-02-26T13:13:17;11.73;;;6.22;;
65033;SDS011;51601;51.356;12.458;2024-02-26T13:17:37;14.80;;;6.80;;
65033;SDS011;51601;51.356;12.458;2024-02-26T13:21:57;11.97;;;6.30;;
65033;SDS011;51601;51.356;12.458;2024-02-26T13:26:22;12.73;;;6.88;;
65033;SDS011;51601;51.356;12.458;2024-02-26T13:30:40;13.68;;;6.68;;
65033;SDS011;51601;51.356;12.458;2024-02-26T13:35:04;10.90;;;6.37;;
65033;SDS011;51601;51.356;12.458;2024-02-26T13:39:24;13.88;;;6.32;;
65033;SDS011;51601;51.356;12.458;2024-02-26T13:43:43;12.88;;;6.18;;
65033;SDS011;51601;51.356;12.458;2024-02-26T13:48:02;11.57;;;6.03;;
65033;SDS011;51601;51.356;12.458;2024-02-26T13:52:23;12.13;;;6.17;;
65033;SDS011;51601;51.356;12.458;2024-02-26T13:56:42;11.77;;;6.13;;
65033;SDS011;51601;51.356;12.458;2024-02-26T14:01:05;15.15;;;6.82;;
65033;SDS011;51601;51.356;12.458;2024-02-26T14:05:23;13.13;;;6.40;;
65033;SDS011;51601;51.356;12.458;2024-02-26T14:09:41;12.13;;;5.55;;
65033;SDS011;51601;51.356;12.458;2024-02-26T14:14:07;10.82;;;5.72;;
65033;SDS011;51601;51.356;12.458;2024-02-26T14:18:33;10.10;;;5.23;;
65033;SDS011;51601;51.356;12.458;2024-02-26T14:22:51;12.68;;;5.78;;
65033;SDS011;51601;51.356;12.458;2024-02-26T14:27:10;10.90;;;6.05;;
65033;SDS011;51601;51.356;12.458;2024-02-26T14:31:31;13.02;;;6.07;;
65033;SDS011;51601;51.356;12.458;2024-02-26T14:35:51;10.87;;;5.93;;
65033;SDS011;51601;51.356;12.458;2024-02-26T14:40:09;14.25;;;5.80;;
65033;SDS011;51601;51.356;12.458;2024-02-26T14:44:31;12.75;;;5.68;;
65033;SDS011;51601;51.356;12.458;2024-02-26T14:48:49;12.03;;;5.83;;
65033;SDS011;51601;51.356;12.458;2024-02-26T14:53:09;13.93;;;5.35;;
65033;SDS011;51601;51.356;12.458;2024-02-26T14:57:27;11.43;;;5.32;;
65033;SDS011;51601;51.356;12.458;2024-02-26T15:01:45;10.87;;;5.33;;
65033;SDS011;51601;51.356;12.458;2024-02-26T15:06:05;11.27;;;5.50;;
65033;SDS011;51601;51.356;12.458;2024-02-26T15:10:24;11.45;;;5.90;;
65033;SDS011;51601;51.356;12.458;2024-02-26T15:14:46;12.48;;;5.70;;
65033;SDS011;51601;51.356;12.458;2024-02-26T15:19:04;14.90;;;6.03;;
65033;SDS011;51601;51.356;12.458;2024-02-26T15:23:26;13.00;;;6.28;;
65033;SDS011;51601;51.356;12.458;2024-02-26T15:27:43;13.52;;;6.72;;
65033;SDS011;51601;51.356;12.458;2024-02-26T15:32:01;14.50;;;7.70;;
65033;SDS011;51601;51.356;12.458;2024-02-26T15:36:19;15.32;;;7.63;;
65033;SDS011;51601;51.356;12.458;2024-02-26T15:40:38;14.80;;;7.47;;
65033;SDS011;51601;51.356;12.458;2024-02-26T15:44:55;18.47;;;8.57;;
65033;SDS011;51601;51.356;12.458;2024-02-26T15:49:13;15.00;;;8.25;;
65033;SDS011;51601;51.356;12.458;2024-02-26T15:53:31;15.55;;;8.70;;
65033;SDS011;51601;51.356;12.458;2024-02-26T15:57:51;17.73;;;8.80;;
65033;SDS011;51601;51.356;12.458;2024-02-26T16:02:10;17.47;;;8.53;;
65033;SDS011;51601;51.356;12.458;2024-02-26T16:06:29;16.75;;;9.05;;
65033;SDS011;51601;51.356;12.458;2024-02-26T16:10:50;18.30;;;8.85;;
65033;SDS011;51601;51.356;12.458;2024-02-26T16:15:09;19.23;;;9.23;;
65033;SDS011;51601;51.356;12.458;2024-02-26T16:19:29;17.15;;;9.00;;
65033;SDS011;51601;51.356;12.458;2024-02-26T16:23:47;16.15;;;8.90;;
65033;SDS011;51601;51.356;12.458;2024-02-26T16:28:05;21.03;;;9.90;;
65033;SDS011;51601;51.356;12.458;2024-02-26T16:32:24;21.77;;;9.20;;
65033;SDS011;51601;51.356;12.458;2024-02-26T16:36:41;21.30;;;9.38;;
65033;SDS011;51601;51.356;12.458;2024-02-26T16:40:59;18.10;;;8.98;;
65033;SDS011;51601;51.356;12.458;2024-02-26T16:45:17;20.27;;;9.50;;
65033;SDS011;51601;51.356;12.458;2024-02-26T16:49:36;17.50;;;8.45;;
65033;SDS011;51601;51.356;12.458;2024-02-26T16:53:56;16.73;;;8.38;;
65033;SDS011;51601;51.356;12.458;2024-02-26T16:58:14;20.27;;;9.90;;
65033;SDS011;51601;51.356;12.458;2024-02-26T17:02:32;22.27;;;9.68;;
65033;SDS011;51601;51.356;12.458;2024-02-26T17:06:52;22.23;;;10.07;;
65033;SDS011;51601;51.356;12.458;2024-02-26T17:11:12;20.97;;;10.30;;
65033;SDS011;51601;51.356;12.458;2024-02-26T17:15:33;21.45;;;10.20;;
65033;SDS011;51601;51.356;12.458;2024-02-26T17:19:51;19.98;;;10.00;;
65033;SDS011;51601;51.356;12.458;2024-02-26T17:24:10;18.15;;;9.45;;
65033;SDS011;51601;51.356;12.458;2024-02-26T17:28:30;20.67;;;9.80;;
65033;SDS011;51601;51.356;12.458;2024-02-26T17:32:48;21.17;;;9.40;;
65033;SDS011;51601;51.356;12.458;2024-02-26T17:37:06;17.83;;;9.18;;
65033;SDS011;51601;51.356;12.458;2024-02-26T17:41:26;20.93;;;10.13;;
65033;SDS011;51601;51.356;12.458;2024-02-26T17:45:45;18.90;;;9.50;;
65033;SDS011;51601;51.356;12.458;2024-02-26T17:50:04;17.23;;;8.82;;
65033;SDS011;51601;51.356;12.458;2024-02-26T17:54:22;18.77;;;9.83;;
65033;SDS011;51601;51.356;12.458;2024-02-26T17:58:41;17.63;;;9.50;;
65033;SDS011;51601;51.356;12.458;2024-02-26T18:02:57;17.70;;;9.20;;
65033;SDS011;51601;51.356;12.458;2024-02-26T18:07:17;18.63;;;9.63;;
65033;SDS011;51601;51.356;12.458;2024-02-26T18:11:37;16.90;;;8.83;;
65033;SDS011;51601;51.356;12.458;2024-02-26T18:15:56;18.73;;;9.65;;
65033;SDS011;51601;51.356;12.458;2024-02-26T18:20:16;18.30;;;9.13;;
65033;SDS011;51601;51.356;12.458;2024-02-26T18:24:34;20.77;;;9.57;;
65033;SDS011;51601;51.356;12.458;2024-02-26T18:28:55;16.38;;;8.73;;
65033;SDS011;51601;51.356;12.458;2024-02-26T18:33:14;19.20;;;9.57;;
65033;SDS011;51601;51.356;12.458;2024-02-26T18:37:34;14.87;;;8.17;;
65033;SDS011;51601;51.356;12.458;2024-02-26T18:41:52;16.52;;;8.55;;
65033;SDS011;51601;51.356;12.458;2024-02-26T18:46:10;16.42;;;8.30;;
65033;SDS011;51601;51.356;12.458;2024-02-26T18:50:30;14.13;;;7.90;;
65033;SDS011;51601;51.356;12.458;2024-02-26T18:54:49;17.03;;;8.53;;
65033;SDS011;51601;51.356;12.458;2024-02-26T18:59:07;16.17;;;8.52;;
65033;SDS011;51601;51.356;12.458;2024-02-26T19:03:32;17.85;;;8.68;;
65033;SDS011;51601;51.356;12.458;2024-02-26T19:07:51;15.93;;;8.63;;
65033;SDS011;51601;51.356;12.458;2024-02-26T19:12:14;17.27;;;8.15;;
65033;SDS011;51601;51.356;12.458;2024-02-26T19:16:32;16.73;;;8.55;;
65033;SDS011;51601;51.356;12.458;2024-02-26T19:20:50;17.67;;;8.90;;
65033;SDS011;51601;51.356;12.458;2024-02-26T19:25:10;17.23;;;8.50;;
65033;SDS011;51601;51.356;12.458;2024-02-26T19:29:31;18.10;;;9.82;;
65033;SDS011;51601;51.356;12.458;2024-02-26T19:33:52;17.27;;;8.80;;
65033;SDS011;51601;51.356;12.458;2024-02-26T19:38:08;17.27;;;8.93;;
65033;SDS011;51601;51.356;12.458;2024-02-26T19:42:28;18.65;;;9.68;;
65033;SDS011;51601;51.356;12.458;2024-02-26T19:46:48;16.65;;;8.45;;
65033;SDS011;51601;51.356;12.458;2024-02-26T19:51:06;18.07;;;9.60;;
65033;SDS011;51601;51.356;12.458;2024-02-26T19:55:24;18.17;;;9.50;;
65033;SDS011;51601;51.356;12.458;2024-02-26T19:59:46;19.27;;;10.18;;
65033;SDS011;51601;51.356;12.458;2024-02-26T20:04:03;19.13;;;9.77;;
65033;SDS011;51601;51.356;12.458;2024-02-26T20:08:27;21.60;;;11.02;;
65033;SDS011;51601;51.356;12.458;2024-02-26T20:12:45;20.00;;;10.48;;
65033;SDS011;51601;51.356;12.458;2024-02-26T20:17:05;21.42;;;11.05;;
65033;SDS011;51601;51.356;12.458;2024-02-26T20:21:24;22.87;;;10.70;;
65033;SDS011;51601;51.356;12.458;2024-02-26T20:25:42;20.38;;;10.98;;
65033;SDS011;51601;51.356;12.458;2024-02-26T20:30:00;22.85;;;11.98;;
65033;SDS011;51601;51.356;12.458;2024-02-26T20:34:20;23.03;;;12.03;;
65033;SDS011;51601;51.356;12.458;2024-02-26T20:38:40;23.83;;;11.98;;
65033;SDS011;51601;51.356;12.458;2024-02-26T20:42:58;25.00;;;13.18;;
65033;SDS011;51601;51.356;12.458;2024-02-26T20:47:19;25.40;;;13.00;;
65033;SDS011;51601;51.356;12.458;2024-02-26T20:51:38;25.38;;;13.30;;
65033;SDS011;51601;51.356;12.458;2024-02-26T20:55:58;25.05;;;13.18;;
65033;SDS011;51601;51.356;12.458;2024-02-26T21:00:16;26.30;;;13.68;;
65033;SDS011;51601;51.356;12.458;2024-02-26T21:04:34;27.83;;;13.33;;
65033;SDS011;51601;51.356;12.458;2024-02-26T21:08:57;24.80;;;12.88;;
65033;SDS011;51601;51.356;12.458;2024-02-26T21:13:16;27.45;;;14.13;;
65033;SDS011;51601;51.356;12.458;2024-02-26T21:17:34;28.13;;;14.33;;
65033;SDS011;51601;51.356;12.458;2024-02-26T21:21:52;28.17;;;14.00;;
65033;SDS011;51601;51.356;12.458;2024-02-26T21:26:15;26.83;;;14.15;;
65033;SDS011;51601;51.356;12.458;2024-02-26T21:30:32;27.17;;;14.60;;
65033;SDS011;51601;51.356;12.458;2024-02-26T21:34:50;29.67;;;14.38;;
65033;SDS011;51601;51.356;12.458;2024-02-26T21:39:08;26.65;;;13.73;;
65033;SDS011;51601;51.356;12.458;2024-02-26T21:43:27;32.35;;;15.60;;
65033;SDS011;51601;51.356;12.458;2024-02-26T21:47:47;30.57;;;14.60;;
65033;SDS011;51601;51.356;12.458;2024-02-26T21:52:05;27.67;;;14.23;;
65033;SDS011;51601;51.356;12.458;2024-02-26T21:56:23;28.30;;;14.32;;
65033;SDS011;51601;51.356;12.458;2024-02-26T22:00:42;29.23;;;14.80;;
65033;SDS011;51601;51.356;12.458;2024-02-26T22:05:02;28.13;;;13.93;;
65033;SDS011;51601;51.356;12.458;2024-02-26T22:09:20;30.17;;;14.65;;
65033;SDS011;51601;51.356;12.458;2024-02-26T22:13:38;28.47;;;14.17;;
65033;SDS011;51601;51.356;12.458;2024-02-26T22:17:58;28.88;;;14.55;;
65033;SDS011;51601;51.356;12.458;2024-02-26T22:22:17;28.55;;;14.32;;
65033;SDS011;51601;51.356;12.458;2024-02-26T22:26:36;29.52;;;14.60;;
65033;SDS011;51601;51.356;12.458;2024-02-26T22:30:54;29.60;;;15.07;;
65033;SDS011;51601;51.356;12.458;2024-02-26T22:35:13;30.48;;;15.85;;
65033;SDS011;51601;51.356;12.458;2024-02-26T22:39:33;27.80;;;14.48;;
65033;SDS011;51601;51.356;12.458;2024-02-26T22:43:54;24.67;;;13.37;;
65033;SDS011;51601;51.356;12.458;2024-02-26T22:48:12;25.98;;;13.45;;
65033;SDS011;51601;51.356;12.458;2024-02-26T22:52:31;27.15;;;13.35;;
65033;SDS011;51601;51.356;12.458;2024-02-26T22:56:48;26.37;;;13.77;;
65033;SDS011;51601;51.356;12.458;2024-02-26T23:01:06;27.80;;;14.07;;
65033;SDS011;51601;51.356;12.458;2024-02-26T23:05:25;31.25;;;14.35;;
65033;SDS011;51601;51.356;12.458;2024-02-26T23:09:44;27.88;;;14.30;;
65033;SDS011;51601;51.356;12.458;2024-02-26T23:14:03;26.83;;;13.20;;
65033;SDS011;51601;51.356;12.458;2024-02-26T23:18:21;26.98;;;13.48;;
65033;SDS011;51601;51.356;12.458;2024-02-26T23:22:41;27.65;;;13.75;;
65033;SDS011;51601;51.356;12.458;2024-02-26T23:27:02;29.27;;;14.70;;
65033;SDS011;51601;51.356;12.458;2024-02-26T23:31:22;26.70;;;13.10;;
65033;SDS011;51601;51.356;12.458;2024-02-26T23:35:40;28.80;;;13.80;;
65033;SDS011;51601;51.356;12.458;2024-02-26T23:39:58;27.03;;;14.33;;
65033;SDS011;51601;51.356;12.458;2024-02-26T23:44:17;29.90;;;13.50;;
65033;SDS011;51601;51.356;12.458;2024-02-26T23:48:34;28.23;;;14.13;;
65033;SDS011;51601;51.356;12.458;2024-02-26T23:52:52;29.40;;;13.60;;
65033;SDS011;51601;51.356;12.458;2024-02-26T23:57:10;27.63;;;13.50;;
